sensor_id;sensor_type;location;lat;lon;timestamp;P1;durP1;ratioP1;P2;durP2;ratioP2
261;SDS011;114;48.260;10.988;2023-09-12T00:02:24;16.00;;;12.00;;
261;SDS011;114;48.260;10.988;2023-09-12T00:04:51;19.00;;;12.50;;
261;SDS011;114;48.260;10.988;2023-09-12T00:07:17;14.63;;;11.67;;
261;SDS011;114;48.260;10.988;2023-09-12T00:09:43;19.73;;;13.00;;
261;SDS011;114;48.260;10.988;2023-09-12T00:12:09;13.77;;;12.33;;
261;SDS011;114;48.260;10.988;2023-09-12T00:14:38;18.30;;;10.43;;
261;SDS011;114;48.260;10.988;2023-09-12T00:17:04;11.93;;;10.87;;
261;SDS011;114;48.260;10.988;2023-09-12T00:19:30;20.00;;;13.27;;
261;SDS011;114;48.260;10.988;2023-09-12T00:21:55;15.13;;;13.53;;
261;SDS011;114;48.260;10.988;2023-09-12T00:24:22;13.80;;;12.37;;
261;SDS011;114;48.260;10.988;2023-09-12T00:26:49;15.43;;;13.40;;
261;SDS011;114;48.260;10.988;2023-09-12T00:29:15;28.03;;;13.23;;
261;SDS011;114;48.260;10.988;2023-09-12T00:31:41;19.57;;;13.60;;
261;SDS011;114;48.260;10.988;2023-09-12T00:34:07;14.17;;;12.30;;
261;SDS011;114;48.260;10.988;2023-09-12T00:36:33;17.50;;;13.50;;
261;SDS011;114;48.260;10.988;2023-09-12T00:38:58;21.87;;;14.27;;
261;SDS011;114;48.260;10.988;2023-09-12T00:41:25;14.30;;;12.70;;
261;SDS011;114;48.260;10.988;2023-09-12T00:43:51;16.60;;;14.90;;
261;SDS011;114;48.260;10.988;2023-09-12T00:46:18;15.93;;;13.87;;
261;SDS011;114;48.260;10.988;2023-09-12T00:48:44;18.13;;;13.47;;
261;SDS011;114;48.260;10.988;2023-09-12T00:51:12;14.40;;;11.93;;
261;SDS011;114;48.260;10.988;2023-09-12T00:53:39;16.17;;;13.80;;
261;SDS011;114;48.260;10.988;2023-09-12T00:56:07;18.17;;;14.13;;
261;SDS011;114;48.260;10.988;2023-09-12T00:58:33;16.87;;;13.13;;
261;SDS011;114;48.260;10.988;2023-09-12T01:01:01;16.47;;;14.83;;
261;SDS011;114;48.260;10.988;2023-09-12T01:05:57;17.60;;;13.93;;
261;SDS011;114;48.260;10.988;2023-09-12T01:08:25;19.10;;;14.33;;
261;SDS011;114;48.260;10.988;2023-09-12T01:10:52;15.80;;;12.70;;
261;SDS011;114;48.260;10.988;2023-09-12T01:13:20;17.33;;;14.80;;
261;SDS011;114;48.260;10.988;2023-09-12T01:15:46;16.80;;;14.97;;
261;SDS011;114;48.260;10.988;2023-09-12T01:18:13;19.60;;;14.17;;
261;SDS011;114;48.260;10.988;2023-09-12T01:20:38;16.07;;;14.50;;
261;SDS011;114;48.260;10.988;2023-09-12T01:28:47;19.83;;;14.17;;
261;SDS011;114;48.260;10.988;2023-09-12T01:31:16;20.80;;;14.17;;
261;SDS011;114;48.260;10.988;2023-09-12T01:33:42;15.57;;;13.00;;
261;SDS011;114;48.260;10.988;2023-09-12T01:36:13;16.23;;;12.77;;
261;SDS011;114;48.260;10.988;2023-09-12T01:38:40;22.50;;;13.60;;
261;SDS011;114;48.260;10.988;2023-09-12T01:41:05;17.47;;;14.67;;
261;SDS011;114;48.260;10.988;2023-09-12T01:43:32;19.33;;;13.23;;
261;SDS011;114;48.260;10.988;2023-09-12T01:45:59;22.87;;;12.27;;
261;SDS011;114;48.260;10.988;2023-09-12T01:48:28;16.67;;;12.70;;
261;SDS011;114;48.260;10.988;2023-09-12T01:50:58;19.20;;;14.67;;
261;SDS011;114;48.260;10.988;2023-09-12T01:53:26;16.33;;;14.63;;
261;SDS011;114;48.260;10.988;2023-09-12T01:55:54;15.90;;;13.90;;
261;SDS011;114;48.260;10.988;2023-09-12T01:58:22;17.10;;;14.00;;
261;SDS011;114;48.260;10.988;2023-09-12T02:00:50;14.23;;;12.73;;
261;SDS011;114;48.260;10.988;2023-09-12T02:03:16;15.97;;;14.07;;
261;SDS011;114;48.260;10.988;2023-09-12T02:05:41;16.17;;;14.43;;
261;SDS011;114;48.260;10.988;2023-09-12T02:08:08;14.63;;;13.17;;
261;SDS011;114;48.260;10.988;2023-09-12T02:10:33;14.57;;;13.03;;
261;SDS011;114;48.260;10.988;2023-09-12T02:12:59;15.73;;;11.80;;
261;SDS011;114;48.260;10.988;2023-09-12T02:15:26;18.53;;;13.00;;
261;SDS011;114;48.260;10.988;2023-09-12T02:17:52;19.03;;;12.37;;
261;SDS011;114;48.260;10.988;2023-09-12T02:20:18;14.90;;;12.70;;
261;SDS011;114;48.260;10.988;2023-09-12T02:22:44;23.40;;;14.00;;
261;SDS011;114;48.260;10.988;2023-09-12T02:25:10;15.13;;;13.63;;
261;SDS011;114;48.260;10.988;2023-09-12T02:27:36;17.67;;;13.63;;
261;SDS011;114;48.260;10.988;2023-09-12T02:30:02;20.07;;;14.50;;
261;SDS011;114;48.260;10.988;2023-09-12T02:32:28;15.87;;;12.53;;
261;SDS011;114;48.260;10.988;2023-09-12T02:34:55;14.10;;;12.70;;
261;SDS011;114;48.260;10.988;2023-09-12T02:37:23;21.83;;;13.70;;
261;SDS011;114;48.260;10.988;2023-09-12T02:39:50;13.73;;;12.33;;
261;SDS011;114;48.260;10.988;2023-09-12T02:42:16;14.10;;;12.60;;
261;SDS011;114;48.260;10.988;2023-09-12T02:44:43;22.30;;;13.63;;
261;SDS011;114;48.260;10.988;2023-09-12T02:47:09;14.23;;;12.77;;
261;SDS011;114;48.260;10.988;2023-09-12T02:49:34;15.50;;;12.10;;
261;SDS011;114;48.260;10.988;2023-09-12T02:52:00;16.63;;;12.30;;
261;SDS011;114;48.260;10.988;2023-09-12T02:54:26;14.17;;;12.80;;
261;SDS011;114;48.260;10.988;2023-09-12T02:56:52;17.90;;;13.80;;
261;SDS011;114;48.260;10.988;2023-09-12T02:59:17;15.17;;;12.93;;
261;SDS011;114;48.260;10.988;2023-09-12T03:01:45;14.47;;;12.80;;
261;SDS011;114;48.260;10.988;2023-09-12T03:04:11;15.03;;;13.43;;
261;SDS011;114;48.260;10.988;2023-09-12T03:06:36;14.67;;;13.20;;
261;SDS011;114;48.260;10.988;2023-09-12T03:09:02;19.37;;;12.90;;
261;SDS011;114;48.260;10.988;2023-09-12T03:11:28;16.57;;;13.67;;
261;SDS011;114;48.260;10.988;2023-09-12T03:13:54;16.77;;;12.97;;
261;SDS011;114;48.260;10.988;2023-09-12T03:16:20;14.23;;;11.53;;
261;SDS011;114;48.260;10.988;2023-09-12T03:18:48;13.90;;;12.30;;
261;SDS011;114;48.260;10.988;2023-09-12T03:21:14;20.03;;;13.60;;
261;SDS011;114;48.260;10.988;2023-09-12T03:23:39;16.60;;;12.43;;
261;SDS011;114;48.260;10.988;2023-09-12T03:26:05;13.50;;;12.20;;
261;SDS011;114;48.260;10.988;2023-09-12T03:28:31;16.83;;;13.10;;
261;SDS011;114;48.260;10.988;2023-09-12T03:31:07;14.83;;;10.70;;
261;SDS011;114;48.260;10.988;2023-09-12T03:33:36;14.00;;;11.83;;
261;SDS011;114;48.260;10.988;2023-09-12T03:36:03;13.13;;;10.77;;
261;SDS011;114;48.260;10.988;2023-09-12T03:38:31;12.67;;;11.40;;
261;SDS011;114;48.260;10.988;2023-09-12T03:40:56;15.50;;;11.63;;
261;SDS011;114;48.260;10.988;2023-09-12T03:43:22;13.90;;;12.40;;
261;SDS011;114;48.260;10.988;2023-09-12T03:45:48;13.53;;;11.13;;
261;SDS011;114;48.260;10.988;2023-09-12T03:48:14;13.83;;;12.53;;
261;SDS011;114;48.260;10.988;2023-09-12T03:50:40;14.23;;;12.83;;
261;SDS011;114;48.260;10.988;2023-09-12T03:53:05;13.80;;;11.80;;
261;SDS011;114;48.260;10.988;2023-09-12T03:55:31;19.80;;;12.00;;
261;SDS011;114;48.260;10.988;2023-09-12T03:57:57;13.33;;;11.97;;
261;SDS011;114;48.260;10.988;2023-09-12T04:00:23;16.77;;;13.53;;
261;SDS011;114;48.260;10.988;2023-09-12T04:02:48;14.13;;;12.50;;
261;SDS011;114;48.260;10.988;2023-09-12T04:05:14;22.20;;;12.27;;
261;SDS011;114;48.260;10.988;2023-09-12T04:07:40;22.37;;;14.40;;
261;SDS011;114;48.260;10.988;2023-09-12T04:10:06;13.50;;;12.13;;
261;SDS011;114;48.260;10.988;2023-09-12T04:12:33;17.67;;;13.67;;
261;SDS011;114;48.260;10.988;2023-09-12T04:14:58;13.93;;;11.77;;
261;SDS011;114;48.260;10.988;2023-09-12T04:17:24;14.80;;;12.97;;
261;SDS011;114;48.260;10.988;2023-09-12T04:19:51;16.33;;;13.80;;
261;SDS011;114;48.260;10.988;2023-09-12T04:22:17;15.13;;;13.30;;
261;SDS011;114;48.260;10.988;2023-09-12T04:24:42;14.53;;;11.30;;
261;SDS011;114;48.260;10.988;2023-09-12T04:27:08;13.40;;;11.27;;
261;SDS011;114;48.260;10.988;2023-09-12T04:29:34;13.07;;;11.67;;
261;SDS011;114;48.260;10.988;2023-09-12T04:32:01;13.77;;;10.93;;
261;SDS011;114;48.260;10.988;2023-09-12T04:34:28;15.17;;;12.80;;
261;SDS011;114;48.260;10.988;2023-09-12T04:36:54;11.77;;;10.67;;
261;SDS011;114;48.260;10.988;2023-09-12T04:39:20;12.93;;;10.73;;
261;SDS011;114;48.260;10.988;2023-09-12T04:41:46;11.07;;;9.97;;
261;SDS011;114;48.260;10.988;2023-09-12T04:44:11;12.50;;;11.30;;
261;SDS011;114;48.260;10.988;2023-09-12T04:46:37;11.67;;;9.73;;
261;SDS011;114;48.260;10.988;2023-09-12T04:49:03;12.27;;;9.70;;
261;SDS011;114;48.260;10.988;2023-09-12T04:51:29;14.73;;;10.53;;
261;SDS011;114;48.260;10.988;2023-09-12T04:53:54;14.03;;;12.30;;
261;SDS011;114;48.260;10.988;2023-09-12T04:56:20;21.37;;;12.17;;
261;SDS011;114;48.260;10.988;2023-09-12T04:58:49;16.60;;;10.97;;
261;SDS011;114;48.260;10.988;2023-09-12T05:01:15;14.30;;;12.70;;
261;SDS011;114;48.260;10.988;2023-09-12T05:03:41;14.43;;;12.47;;
261;SDS011;114;48.260;10.988;2023-09-12T05:06:07;13.67;;;12.23;;
261;SDS011;114;48.260;10.988;2023-09-12T05:08:33;15.43;;;12.70;;
261;SDS011;114;48.260;10.988;2023-09-12T05:10:59;15.93;;;14.17;;
261;SDS011;114;48.260;10.988;2023-09-12T05:13:24;14.40;;;13.20;;
261;SDS011;114;48.260;10.988;2023-09-12T05:15:50;17.80;;;12.93;;
261;SDS011;114;48.260;10.988;2023-09-12T05:18:16;19.53;;;14.10;;
261;SDS011;114;48.260;10.988;2023-09-12T05:20:41;22.03;;;14.43;;
261;SDS011;114;48.260;10.988;2023-09-12T05:23:08;17.60;;;14.20;;
261;SDS011;114;48.260;10.988;2023-09-12T05:25:34;24.83;;;13.03;;
261;SDS011;114;48.260;10.988;2023-09-12T05:28:00;21.00;;;13.70;;
261;SDS011;114;48.260;10.988;2023-09-12T05:30:25;19.20;;;12.90;;
261;SDS011;114;48.260;10.988;2023-09-12T05:32:52;18.03;;;13.60;;
261;SDS011;114;48.260;10.988;2023-09-12T05:35:17;16.47;;;13.23;;
261;SDS011;114;48.260;10.988;2023-09-12T05:37:44;14.73;;;12.43;;
261;SDS011;114;48.260;10.988;2023-09-12T05:40:11;21.43;;;13.47;;
261;SDS011;114;48.260;10.988;2023-09-12T05:42:36;13.57;;;12.17;;
261;SDS011;114;48.260;10.988;2023-09-12T05:45:03;26.00;;;13.20;;
261;SDS011;114;48.260;10.988;2023-09-12T05:47:29;26.53;;;14.10;;
261;SDS011;114;48.260;10.988;2023-09-12T05:49:55;16.50;;;12.57;;
261;SDS011;114;48.260;10.988;2023-09-12T05:52:22;17.77;;;12.73;;
261;SDS011;114;48.260;10.988;2023-09-12T05:54:48;26.07;;;13.70;;
261;SDS011;114;48.260;10.988;2023-09-12T05:57:13;26.47;;;12.20;;
261;SDS011;114;48.260;10.988;2023-09-12T05:59:40;19.67;;;12.97;;
261;SDS011;114;48.260;10.988;2023-09-12T06:02:06;15.70;;;12.57;;
261;SDS011;114;48.260;10.988;2023-09-12T06:04:34;16.37;;;11.80;;
261;SDS011;114;48.260;10.988;2023-09-12T06:07:03;24.63;;;12.20;;
261;SDS011;114;48.260;10.988;2023-09-12T06:09:29;38.23;;;11.63;;
261;SDS011;114;48.260;10.988;2023-09-12T06:11:55;16.60;;;11.63;;
261;SDS011;114;48.260;10.988;2023-09-12T06:14:20;21.90;;;12.00;;
261;SDS011;114;48.260;10.988;2023-09-12T06:16:46;18.47;;;11.60;;
261;SDS011;114;48.260;10.988;2023-09-12T06:19:12;14.10;;;12.13;;
261;SDS011;114;48.260;10.988;2023-09-12T06:21:39;15.10;;;11.10;;
261;SDS011;114;48.260;10.988;2023-09-12T06:24:13;24.63;;;11.23;;
261;SDS011;114;48.260;10.988;2023-09-12T06:26:40;13.20;;;11.90;;
261;SDS011;114;48.260;10.988;2023-09-12T06:29:06;20.33;;;10.43;;
261;SDS011;114;48.260;10.988;2023-09-12T06:31:31;14.30;;;10.03;;
261;SDS011;114;48.260;10.988;2023-09-12T06:33:57;12.50;;;11.20;;
261;SDS011;114;48.260;10.988;2023-09-12T06:36:24;11.93;;;10.70;;
261;SDS011;114;48.260;10.988;2023-09-12T06:38:52;12.70;;;11.50;;
261;SDS011;114;48.260;10.988;2023-09-12T06:41:19;22.53;;;10.80;;
261;SDS011;114;48.260;10.988;2023-09-12T06:43:44;17.90;;;10.47;;
261;SDS011;114;48.260;10.988;2023-09-12T06:46:10;15.03;;;10.77;;
261;SDS011;114;48.260;10.988;2023-09-12T06:48:37;12.50;;;11.20;;
261;SDS011;114;48.260;10.988;2023-09-12T06:51:07;13.80;;;11.03;;
261;SDS011;114;48.260;10.988;2023-09-12T06:53:34;10.50;;;9.50;;
261;SDS011;114;48.260;10.988;2023-09-12T06:56:02;13.07;;;9.73;;
261;SDS011;114;48.260;10.988;2023-09-12T06:58:28;19.53;;;10.07;;
261;SDS011;114;48.260;10.988;2023-09-12T07:00:54;16.90;;;9.80;;
261;SDS011;114;48.260;10.988;2023-09-12T07:03:19;16.63;;;10.87;;
261;SDS011;114;48.260;10.988;2023-09-12T07:05:46;15.10;;;9.97;;
261;SDS011;114;48.260;10.988;2023-09-12T07:08:12;11.50;;;10.30;;
261;SDS011;114;48.260;10.988;2023-09-12T07:10:37;17.70;;;10.20;;
261;SDS011;114;48.260;10.988;2023-09-12T07:13:11;10.37;;;9.10;;
261;SDS011;114;48.260;10.988;2023-09-12T07:15:37;12.53;;;10.50;;
261;SDS011;114;48.260;10.988;2023-09-12T07:18:03;12.67;;;9.63;;
261;SDS011;114;48.260;10.988;2023-09-12T07:20:30;10.73;;;9.63;;
261;SDS011;114;48.260;10.988;2023-09-12T07:22:56;17.30;;;10.20;;
261;SDS011;114;48.260;10.988;2023-09-12T07:25:21;11.67;;;9.57;;
261;SDS011;114;48.260;10.988;2023-09-12T07:27:49;19.80;;;9.83;;
261;SDS011;114;48.260;10.988;2023-09-12T07:30:15;17.90;;;9.83;;
261;SDS011;114;48.260;10.988;2023-09-12T07:32:41;16.27;;;10.60;;
261;SDS011;114;48.260;10.988;2023-09-12T07:35:19;17.40;;;8.90;;
261;SDS011;114;48.260;10.988;2023-09-12T07:37:49;15.23;;;8.60;;
261;SDS011;114;48.260;10.988;2023-09-12T07:40:15;9.87;;;8.97;;
261;SDS011;114;48.260;10.988;2023-09-12T07:42:40;19.23;;;9.60;;
261;SDS011;114;48.260;10.988;2023-09-12T07:45:07;24.70;;;9.57;;
261;SDS011;114;48.260;10.988;2023-09-12T07:47:33;20.90;;;9.07;;
261;SDS011;114;48.260;10.988;2023-09-12T07:49:59;15.47;;;10.10;;
261;SDS011;114;48.260;10.988;2023-09-12T07:52:25;11.80;;;9.13;;
261;SDS011;114;48.260;10.988;2023-09-12T07:54:51;16.93;;;9.53;;
261;SDS011;114;48.260;10.988;2023-09-12T07:57:22;20.13;;;9.60;;
261;SDS011;114;48.260;10.988;2023-09-12T07:59:48;10.70;;;8.67;;
261;SDS011;114;48.260;10.988;2023-09-12T08:02:14;12.50;;;8.83;;
261;SDS011;114;48.260;10.988;2023-09-12T08:04:39;9.97;;;8.57;;
261;SDS011;114;48.260;10.988;2023-09-12T08:07:05;14.27;;;8.60;;
261;SDS011;114;48.260;10.988;2023-09-12T08:12:19;10.40;;;8.37;;
261;SDS011;114;48.260;10.988;2023-09-12T08:14:46;13.23;;;9.07;;
261;SDS011;114;48.260;10.988;2023-09-12T08:17:13;16.63;;;9.43;;
261;SDS011;114;48.260;10.988;2023-09-12T08:19:39;11.97;;;8.50;;
261;SDS011;114;48.260;10.988;2023-09-12T08:22:06;18.40;;;7.80;;
261;SDS011;114;48.260;10.988;2023-09-12T08:24:33;9.50;;;8.60;;
261;SDS011;114;48.260;10.988;2023-09-12T08:26:59;11.20;;;8.50;;
261;SDS011;114;48.260;10.988;2023-09-12T08:29:29;18.60;;;8.73;;
261;SDS011;114;48.260;10.988;2023-09-12T08:31:57;9.50;;;8.17;;
261;SDS011;114;48.260;10.988;2023-09-12T08:34:24;10.30;;;8.37;;
261;SDS011;114;48.260;10.988;2023-09-12T08:36:50;16.27;;;8.30;;
261;SDS011;114;48.260;10.988;2023-09-12T08:39:17;9.17;;;8.27;;
261;SDS011;114;48.260;10.988;2023-09-12T08:41:48;12.17;;;9.00;;
261;SDS011;114;48.260;10.988;2023-09-12T08:44:15;14.80;;;7.70;;
261;SDS011;114;48.260;10.988;2023-09-12T08:46:42;21.20;;;7.80;;
261;SDS011;114;48.260;10.988;2023-09-12T08:49:09;11.83;;;7.53;;
261;SDS011;114;48.260;10.988;2023-09-12T08:51:39;11.30;;;7.67;;
261;SDS011;114;48.260;10.988;2023-09-12T08:54:06;11.97;;;6.80;;
261;SDS011;114;48.260;10.988;2023-09-12T08:56:33;15.50;;;8.20;;
261;SDS011;114;48.260;10.988;2023-09-12T08:59:01;15.33;;;7.30;;
261;SDS011;114;48.260;10.988;2023-09-12T09:01:31;13.10;;;7.33;;
261;SDS011;114;48.260;10.988;2023-09-12T09:03:58;14.83;;;7.60;;
261;SDS011;114;48.260;10.988;2023-09-12T09:06:27;10.83;;;7.13;;
261;SDS011;114;48.260;10.988;2023-09-12T09:08:55;9.00;;;7.40;;
261;SDS011;114;48.260;10.988;2023-09-12T09:11:21;11.73;;;7.20;;
261;SDS011;114;48.260;10.988;2023-09-12T09:13:47;11.50;;;7.27;;
261;SDS011;114;48.260;10.988;2023-09-12T09:16:14;18.43;;;7.50;;
261;SDS011;114;48.260;10.988;2023-09-12T09:21:20;9.43;;;7.17;;
261;SDS011;114;48.260;10.988;2023-09-12T09:23:50;12.10;;;6.50;;
261;SDS011;114;48.260;10.988;2023-09-12T09:26:17;8.13;;;6.43;;
261;SDS011;114;48.260;10.988;2023-09-12T09:28:43;9.23;;;6.17;;
261;SDS011;114;48.260;10.988;2023-09-12T09:31:10;7.10;;;6.10;;
261;SDS011;114;48.260;10.988;2023-09-12T09:33:41;6.47;;;5.97;;
261;SDS011;114;48.260;10.988;2023-09-12T09:36:16;9.67;;;6.40;;
261;SDS011;114;48.260;10.988;2023-09-12T09:38:41;11.03;;;6.43;;
261;SDS011;114;48.260;10.988;2023-09-12T09:41:08;13.83;;;6.43;;
261;SDS011;114;48.260;10.988;2023-09-12T09:43:34;6.40;;;5.80;;
261;SDS011;114;48.260;10.988;2023-09-12T09:46:00;11.33;;;6.50;;
261;SDS011;114;48.260;10.988;2023-09-12T09:48:28;6.53;;;5.95;;
261;SDS011;114;48.260;10.988;2023-09-12T09:51:02;8.35;;;6.15;;
261;SDS011;114;48.260;10.988;2023-09-12T09:53:29;13.70;;;6.55;;
261;SDS011;114;48.260;10.988;2023-09-12T09:56:13;10.50;;;6.40;;
261;SDS011;114;48.260;10.988;2023-09-12T09:58:53;6.45;;;5.68;;
261;SDS011;114;48.260;10.988;2023-09-12T10:01:21;5.40;;;4.88;;
261;SDS011;114;48.260;10.988;2023-09-12T10:03:48;8.80;;;6.38;;
261;SDS011;114;48.260;10.988;2023-09-12T10:06:16;7.30;;;6.05;;
261;SDS011;114;48.260;10.988;2023-09-12T10:08:43;7.63;;;5.78;;
261;SDS011;114;48.260;10.988;2023-09-12T10:11:14;8.98;;;6.05;;
261;SDS011;114;48.260;10.988;2023-09-12T10:13:43;8.35;;;6.75;;
261;SDS011;114;48.260;10.988;2023-09-12T10:16:14;6.63;;;5.88;;
261;SDS011;114;48.260;10.988;2023-09-12T10:18:45;10.23;;;7.35;;
261;SDS011;114;48.260;10.988;2023-09-12T10:21:21;11.80;;;5.80;;
261;SDS011;114;48.260;10.988;2023-09-12T10:23:53;8.75;;;6.00;;
261;SDS011;114;48.260;10.988;2023-09-12T10:26:21;9.73;;;5.68;;
261;SDS011;114;48.260;10.988;2023-09-12T10:28:47;5.75;;;5.20;;
261;SDS011;114;48.260;10.988;2023-09-12T10:31:15;7.55;;;5.43;;
261;SDS011;114;48.260;10.988;2023-09-12T10:33:41;9.00;;;5.30;;
261;SDS011;114;48.260;10.988;2023-09-12T10:36:09;8.25;;;5.40;;
261;SDS011;114;48.260;10.988;2023-09-12T10:38:40;10.27;;;5.60;;
261;SDS011;114;48.260;10.988;2023-09-12T10:41:12;6.03;;;5.13;;
261;SDS011;114;48.260;10.988;2023-09-12T10:43:42;8.75;;;5.25;;
261;SDS011;114;48.260;10.988;2023-09-12T10:46:17;10.57;;;5.25;;
261;SDS011;114;48.260;10.988;2023-09-12T10:48:43;9.80;;;5.10;;
261;SDS011;114;48.260;10.988;2023-09-12T10:51:09;5.07;;;4.68;;
261;SDS011;114;48.260;10.988;2023-09-12T10:53:37;8.98;;;4.78;;
261;SDS011;114;48.260;10.988;2023-09-12T10:56:14;8.10;;;4.63;;
261;SDS011;114;48.260;10.988;2023-09-12T11:01:32;6.95;;;4.35;;
261;SDS011;114;48.260;10.988;2023-09-12T11:04:44;5.78;;;4.45;;
261;SDS011;114;48.260;10.988;2023-09-12T11:06:53;5.15;;;4.78;;
261;SDS011;114;48.260;10.988;2023-09-12T11:09:23;3.97;;;3.65;;
261;SDS011;114;48.260;10.988;2023-09-12T11:11:54;6.85;;;4.40;;
261;SDS011;114;48.260;10.988;2023-09-12T11:14:20;4.57;;;4.18;;
261;SDS011;114;48.260;10.988;2023-09-12T11:19:43;6.88;;;5.57;;
261;SDS011;114;48.260;10.988;2023-09-12T11:24:48;8.48;;;4.18;;
261;SDS011;114;48.260;10.988;2023-09-12T11:27:14;6.47;;;4.18;;
261;SDS011;114;48.260;10.988;2023-09-12T11:29:40;6.30;;;3.83;;
261;SDS011;114;48.260;10.988;2023-09-12T11:32:06;10.88;;;4.10;;
261;SDS011;114;48.260;10.988;2023-09-12T11:34:37;8.63;;;4.20;;
261;SDS011;114;48.260;10.988;2023-09-12T11:37:05;4.93;;;3.83;;
261;SDS011;114;48.260;10.988;2023-09-12T11:39:32;4.13;;;3.47;;
261;SDS011;114;48.260;10.988;2023-09-12T11:41:59;9.60;;;3.90;;
261;SDS011;114;48.260;10.988;2023-09-12T11:44:27;4.35;;;3.35;;
261;SDS011;114;48.260;10.988;2023-09-12T11:46:53;3.90;;;3.60;;
261;SDS011;114;48.260;10.988;2023-09-12T11:49:19;3.30;;;3.00;;
261;SDS011;114;48.260;10.988;2023-09-12T11:51:46;4.30;;;3.42;;
261;SDS011;114;48.260;10.988;2023-09-12T11:54:19;9.70;;;3.20;;
261;SDS011;114;48.260;10.988;2023-09-12T11:56:49;3.20;;;3.00;;
261;SDS011;114;48.260;10.988;2023-09-12T11:59:21;3.78;;;2.30;;
261;SDS011;114;48.260;10.988;2023-09-12T12:01:48;4.57;;;2.58;;
261;SDS011;114;48.260;10.988;2023-09-12T12:04:15;2.33;;;2.17;;
261;SDS011;114;48.260;10.988;2023-09-12T12:06:41;4.03;;;3.15;;
261;SDS011;114;48.260;10.988;2023-09-12T12:09:09;3.03;;;2.50;;
261;SDS011;114;48.260;10.988;2023-09-12T12:11:36;3.53;;;2.55;;
261;SDS011;114;48.260;10.988;2023-09-12T12:14:15;6.88;;;2.90;;
261;SDS011;114;48.260;10.988;2023-09-12T12:16:45;2.78;;;2.50;;
261;SDS011;114;48.260;10.988;2023-09-12T12:19:14;4.47;;;2.30;;
261;SDS011;114;48.260;10.988;2023-09-12T12:21:40;2.63;;;2.47;;
261;SDS011;114;48.260;10.988;2023-09-12T12:24:08;8.02;;;2.42;;
261;SDS011;114;48.260;10.988;2023-09-12T12:26:42;1.80;;;1.70;;
261;SDS011;114;48.260;10.988;2023-09-12T12:29:08;2.15;;;1.98;;
261;SDS011;114;48.260;10.988;2023-09-12T12:31:35;2.95;;;1.73;;
261;SDS011;114;48.260;10.988;2023-09-12T12:34:04;4.25;;;2.33;;
261;SDS011;114;48.260;10.988;2023-09-12T12:36:30;3.17;;;2.00;;
261;SDS011;114;48.260;10.988;2023-09-12T12:38:56;2.15;;;2.05;;
261;SDS011;114;48.260;10.988;2023-09-12T12:41:23;5.25;;;2.22;;
261;SDS011;114;48.260;10.988;2023-09-12T12:43:53;7.28;;;2.00;;
261;SDS011;114;48.260;10.988;2023-09-12T12:46:24;3.20;;;1.80;;
261;SDS011;114;48.260;10.988;2023-09-12T12:48:50;2.03;;;1.90;;
261;SDS011;114;48.260;10.988;2023-09-12T12:53:50;2.40;;;2.30;;
261;SDS011;114;48.260;10.988;2023-09-12T12:56:18;10.13;;;2.58;;
261;SDS011;114;48.260;10.988;2023-09-12T12:58:49;6.68;;;1.92;;
261;SDS011;114;48.260;10.988;2023-09-12T13:01:16;3.75;;;2.95;;
261;SDS011;114;48.260;10.988;2023-09-12T13:03:42;5.95;;;1.58;;
261;SDS011;114;48.260;10.988;2023-09-12T13:06:08;2.03;;;1.92;;
261;SDS011;114;48.260;10.988;2023-09-12T13:08:41;4.25;;;1.80;;
261;SDS011;114;48.260;10.988;2023-09-12T13:11:09;2.65;;;1.60;;
261;SDS011;114;48.260;10.988;2023-09-12T13:13:36;3.05;;;1.90;;
261;SDS011;114;48.260;10.988;2023-09-12T13:16:05;9.10;;;2.20;;
261;SDS011;114;48.260;10.988;2023-09-12T13:18:34;3.00;;;1.83;;
261;SDS011;114;48.260;10.988;2023-09-12T13:21:01;3.92;;;1.75;;
261;SDS011;114;48.260;10.988;2023-09-12T13:23:28;1.90;;;1.80;;
261;SDS011;114;48.260;10.988;2023-09-12T13:25:54;4.38;;;1.67;;
261;SDS011;114;48.260;10.988;2023-09-12T13:28:20;3.72;;;1.48;;
261;SDS011;114;48.260;10.988;2023-09-12T13:30:48;5.57;;;1.60;;
261;SDS011;114;48.260;10.988;2023-09-12T13:33:14;2.72;;;1.90;;
261;SDS011;114;48.260;10.988;2023-09-12T13:35:40;4.28;;;1.83;;
261;SDS011;114;48.260;10.988;2023-09-12T13:38:06;1.63;;;1.23;;
261;SDS011;114;48.260;10.988;2023-09-12T13:40:44;1.27;;;1.20;;
261;SDS011;114;48.260;10.988;2023-09-12T13:43:11;5.50;;;1.40;;
261;SDS011;114;48.260;10.988;2023-09-12T13:45:37;1.85;;;1.05;;
261;SDS011;114;48.260;10.988;2023-09-12T13:48:03;1.88;;;1.27;;
261;SDS011;114;48.260;10.988;2023-09-12T13:50:30;2.72;;;1.30;;
261;SDS011;114;48.260;10.988;2023-09-12T13:53:00;1.45;;;1.08;;
261;SDS011;114;48.260;10.988;2023-09-12T13:55:31;5.78;;;1.10;;
261;SDS011;114;48.260;10.988;2023-09-12T13:58:02;2.55;;;1.52;;
261;SDS011;114;48.260;10.988;2023-09-12T14:00:29;1.25;;;1.25;;
261;SDS011;114;48.260;10.988;2023-09-12T14:02:55;6.25;;;1.40;;
261;SDS011;114;48.260;10.988;2023-09-12T14:05:21;2.22;;;1.08;;
261;SDS011;114;48.260;10.988;2023-09-12T14:07:47;1.80;;;1.70;;
261;SDS011;114;48.260;10.988;2023-09-12T14:10:13;2.83;;;1.73;;
261;SDS011;114;48.260;10.988;2023-09-12T14:12:40;3.15;;;1.50;;
261;SDS011;114;48.260;10.988;2023-09-12T14:15:05;1.20;;;1.10;;
261;SDS011;114;48.260;10.988;2023-09-12T14:17:32;1.85;;;1.30;;
261;SDS011;114;48.260;10.988;2023-09-12T14:19:58;1.25;;;1.25;;
261;SDS011;114;48.260;10.988;2023-09-12T14:22:24;1.33;;;1.23;;
261;SDS011;114;48.260;10.988;2023-09-12T14:24:50;1.50;;;1.40;;
261;SDS011;114;48.260;10.988;2023-09-12T14:27:16;2.17;;;1.60;;
261;SDS011;114;48.260;10.988;2023-09-12T14:29:42;1.88;;;1.23;;
261;SDS011;114;48.260;10.988;2023-09-12T14:32:11;4.47;;;1.30;;
261;SDS011;114;48.260;10.988;2023-09-12T14:34:37;1.73;;;1.17;;
261;SDS011;114;48.260;10.988;2023-09-12T14:37:03;1.88;;;1.30;;
261;SDS011;114;48.260;10.988;2023-09-12T14:39:28;2.50;;;0.90;;
261;SDS011;114;48.260;10.988;2023-09-12T14:41:54;1.23;;;1.23;;
261;SDS011;114;48.260;10.988;2023-09-12T14:44:21;2.92;;;2.10;;
261;SDS011;114;48.260;10.988;2023-09-12T14:46:47;5.55;;;1.13;;
261;SDS011;114;48.260;10.988;2023-09-12T14:49:13;2.85;;;1.20;;
261;SDS011;114;48.260;10.988;2023-09-12T14:51:39;4.18;;;1.15;;
261;SDS011;114;48.260;10.988;2023-09-12T14:54:09;1.60;;;1.50;;
261;SDS011;114;48.260;10.988;2023-09-12T14:56:35;2.67;;;1.20;;
261;SDS011;114;48.260;10.988;2023-09-12T14:59:01;1.20;;;1.20;;
261;SDS011;114;48.260;10.988;2023-09-12T15:01:29;1.92;;;1.15;;
261;SDS011;114;48.260;10.988;2023-09-12T15:03:55;1.30;;;1.30;;
261;SDS011;114;48.260;10.988;2023-09-12T15:06:21;3.70;;;1.30;;
261;SDS011;114;48.260;10.988;2023-09-12T15:08:49;2.33;;;1.60;;
261;SDS011;114;48.260;10.988;2023-09-12T15:11:15;3.78;;;1.20;;
261;SDS011;114;48.260;10.988;2023-09-12T15:13:41;1.35;;;1.10;;
261;SDS011;114;48.260;10.988;2023-09-12T15:16:06;5.97;;;1.63;;
261;SDS011;114;48.260;10.988;2023-09-12T15:18:32;4.75;;;1.80;;
261;SDS011;114;48.260;10.988;2023-09-12T15:20:58;1.60;;;1.50;;
261;SDS011;114;48.260;10.988;2023-09-12T15:23:24;4.53;;;2.50;;
261;SDS011;114;48.260;10.988;2023-09-12T15:25:51;3.40;;;2.70;;
261;SDS011;114;48.260;10.988;2023-09-12T15:28:21;4.55;;;2.40;;
261;SDS011;114;48.260;10.988;2023-09-12T15:30:46;3.40;;;2.83;;
261;SDS011;114;48.260;10.988;2023-09-12T15:33:12;9.05;;;3.08;;
261;SDS011;114;48.260;10.988;2023-09-12T15:35:38;3.17;;;2.97;;
261;SDS011;114;48.260;10.988;2023-09-12T15:38:04;7.28;;;3.20;;
261;SDS011;114;48.260;10.988;2023-09-12T15:40:31;3.33;;;2.88;;